Montmartre, Canada
Current Conditions -  °F | °C
As of 7:00 AM on Sunday 23 Nov 2014 (Local Time) from CYQR Reporting Station
Blowing Snow Blowing Snow  
Wind Chill: -8°   Ceiling: 3400
Heat Index: 12°   Visibility: 12mi
Dew Point:   Wind: 26mph
Humidity: 85%   Direction: 340°NNW
Pressure: 29.59"   Gusts: NA
Location:  50.22°N, 103.45°W
Report Text: CYQR 231300Z 34023KT 12SM -SHSN DRSN SCT014 OVC034 M11/M13 A2959 RMK SC4SC4 SLP054
Loading
Personal Weather Stations






























Interactive Weather Map New forecast layout! Learn more

10-Day Weather Forecast

Advertisements
Track Severe Weather on mobile